Betancuria — EAMH — position and weather

sailwx.info

Track history (hours):
 
Tides and Currents Weather Stations Pressure Air Temp Water Temp Dewpoint Dewpoint Depression Visibility Wind Speed Wind Dir Waves Ship Positions

Betancuria

Last reported at 2015-Aug-30 22:33 UTC. Time now 2015-Sep-03 10:58 UTC.
Position N 35°09' W 008°20'.

Length 141 m; draft 4.7 m.

Type: Ship. MMSI: 224471000.

Date/timePositionNaut miles runAvg speedWind from/ knotsBaromVisibWave heightAir tempDewpointWater temp
2015-Aug-30 22:33N 35°09' W 008°20'1212.0
2015-Aug-30 21:33N 35°20' W 008°26'1211.8
2015-Aug-30 20:33N 35°31' W 008°32'1211.6
2015-Aug-30 19:33N 35°41' W 008°38'1211.5
2015-Aug-30 18:32N 35°52' W 008°44'1111.5
2015-Aug-30 17:33N 36°02' W 008°49'1111.4
2015-Aug-30 16:33N 36°13' W 008°55'1111.4
2015-Aug-30 15:33N 36°23' W 009°01'1110.7
2015-Aug-30 14:33N 36°31' W 009°10'1110.9
2015-Aug-30 13:33N 36°37' W 009°21'1311.1
2015-Aug-30 12:22N 36°46' W 009°32'910.6
2015-Aug-30 11:33N 36°55' W 009°35'1110.9
2015-Aug-30 10:33N 37°05' W 009°38'5611.2
2015-Aug-30 05:32N 37°60' W 009°54'1111.0
2015-Aug-30 04:33N 38°11' W 009°58'1211.6
2015-Aug-30 03:33N 38°22' W 010°01'1212.1
2015-Aug-30 02:33N 38°34' W 010°05'1211.8
2015-Aug-30 01:33N 38°45' W 010°07'1211.8
2015-Aug-30 00:33N 38°57' W 010°07'1111.2
2015-Aug-29 23:33N 39°08' W 010°08'1211.9
2015-Aug-29 22:33N 39°20' W 010°07'1312.4
2015-Aug-29 21:31N 39°33' W 010°07'2611.9
2015-Aug-29 19:21N 39°59' W 010°06'1012.1
2015-Aug-29 18:33N 40°08' W 010°06'1211.8
2015-Aug-29 17:33N 40°20' W 010°06'1211.8
2015-Aug-29 16:33N 40°32' W 010°06'  
2015-Aug-25 02:33N 39°24' W 009°51'1010.1
2015-Aug-25 01:33N 39°14' W 009°51'1010.0
2015-Aug-25 00:33N 39°04' W 009°52'1010.0
2015-Aug-24 23:33N 38°54' W 009°51'10 9.7
2015-Aug-24 22:33N 38°45' W 009°51'10 9.6
2015-Aug-24 21:33N 38°35' W 009°49'10 9.7
2015-Aug-24 20:33N 38°26' W 009°46'9 9.4
2015-Aug-24 19:33N 38°17' W 009°43'9 9.4
2015-Aug-24 18:33N 38°07' W 009°40'10 9.6
2015-Aug-24 17:33N 37°58' W 009°38'9 9.3
2015-Aug-24 16:33N 37°49' W 009°35'9 9.4
2015-Aug-24 15:33N 37°40' W 009°33'  
2015-Aug-22 06:15N 36°44' W 001°45'811.3
2015-Aug-22 05:33N 36°49' W 001°38'1111.3
2015-Aug-22 04:33N 36°57' W 001°27'2311.4
2015-Aug-22 02:33N 37°12' W 001°06'1111.3
2015-Aug-22 01:33N 37°20' W 000°56'1211.2
2015-Aug-22 00:31N 37°27' W 000°44'1010.6
2015-Aug-21 23:33N 37°34' W 000°34'1010.5
2015-Aug-21 22:34N 37°43' W 000°30'1110.5
2015-Aug-21 21:33N 37°54' W 000°27'1110.7
2015-Aug-21 20:33N 38°04' W 000°24'10 9.8
2015-Aug-21 19:31N 38°14' W 000°26'6 1.5
2015-Aug-21 15:15N 38°20' W 000°29'0 0.0
2015-Aug-21 11:33N 38°20' W 000°29'9 1.3
2015-Aug-21 04:17N 38°12' W 000°24'710.1
2015-Aug-21 03:33N 38°04' W 000°23'1110.6
2015-Aug-21 02:33N 37°54' W 000°25'1010.3
2015-Aug-21 01:33N 37°44' W 000°28'1010.3
2015-Aug-21 00:33N 37°34' W 000°31'1010.1
2015-Aug-20 23:33N 37°27' W 000°40'  
Track history (hours):
 
Tides and Currents Weather Stations Pressure Air Temp Water Temp Dewpoint Dewpoint Depression Visibility Wind Speed Wind Dir Waves Ship Positions

Betancuria

Last reported at 2015-Aug-30 22:33 UTC. Time now 2015-Sep-03 10:58 UTC.
Position N 35°09' W 008°20'.

Length 141 m; draft 4.7 m.

Type: Ship. MMSI: 224471000.

Date/timePositionNaut miles runAvg speedWind from/ knotsBaromVisibWave heightAir tempDewpointWater temp
2015-Aug-30 22:33N 35°09' W 008°20'1212.0
2015-Aug-30 21:33N 35°20' W 008°26'1211.8
2015-Aug-30 20:33N 35°31' W 008°32'1211.6
2015-Aug-30 19:33N 35°41' W 008°38'1211.5
2015-Aug-30 18:32N 35°52' W 008°44'1111.5
2015-Aug-30 17:33N 36°02' W 008°49'1111.4
2015-Aug-30 16:33N 36°13' W 008°55'1111.4
2015-Aug-30 15:33N 36°23' W 009°01'1110.7
2015-Aug-30 14:33N 36°31' W 009°10'1110.9
2015-Aug-30 13:33N 36°37' W 009°21'1311.1
2015-Aug-30 12:22N 36°46' W 009°32'910.6
2015-Aug-30 11:33N 36°55' W 009°35'1110.9
2015-Aug-30 10:33N 37°05' W 009°38'5611.2
2015-Aug-30 05:32N 37°60' W 009°54'1111.0
2015-Aug-30 04:33N 38°11' W 009°58'1211.6
2015-Aug-30 03:33N 38°22' W 010°01'1212.1
2015-Aug-30 02:33N 38°34' W 010°05'1211.8
2015-Aug-30 01:33N 38°45' W 010°07'1211.8
2015-Aug-30 00:33N 38°57' W 010°07'1111.2
2015-Aug-29 23:33N 39°08' W 010°08'1211.9
2015-Aug-29 22:33N 39°20' W 010°07'1312.4
2015-Aug-29 21:31N 39°33' W 010°07'2611.9
2015-Aug-29 19:21N 39°59' W 010°06'1012.1
2015-Aug-29 18:33N 40°08' W 010°06'1211.8
2015-Aug-29 17:33N 40°20' W 010°06'1211.8
2015-Aug-29 16:33N 40°32' W 010°06'  
2015-Aug-25 02:33N 39°24' W 009°51'1010.1
2015-Aug-25 01:33N 39°14' W 009°51'1010.0
2015-Aug-25 00:33N 39°04' W 009°52'1010.0
2015-Aug-24 23:33N 38°54' W 009°51'10 9.7
2015-Aug-24 22:33N 38°45' W 009°51'10 9.6
2015-Aug-24 21:33N 38°35' W 009°49'10 9.7
2015-Aug-24 20:33N 38°26' W 009°46'9 9.4
2015-Aug-24 19:33N 38°17' W 009°43'9 9.4
2015-Aug-24 18:33N 38°07' W 009°40'10 9.6
2015-Aug-24 17:33N 37°58' W 009°38'9 9.3
2015-Aug-24 16:33N 37°49' W 009°35'9 9.4
2015-Aug-24 15:33N 37°40' W 009°33'  
2015-Aug-22 06:15N 36°44' W 001°45'811.3
2015-Aug-22 05:33N 36°49' W 001°38'1111.3
2015-Aug-22 04:33N 36°57' W 001°27'2311.4
2015-Aug-22 02:33N 37°12' W 001°06'1111.3
2015-Aug-22 01:33N 37°20' W 000°56'1211.2
2015-Aug-22 00:31N 37°27' W 000°44'1010.6
2015-Aug-21 23:33N 37°34' W 000°34'1010.5
2015-Aug-21 22:34N 37°43' W 000°30'1110.5
2015-Aug-21 21:33N 37°54' W 000°27'1110.7
2015-Aug-21 20:33N 38°04' W 000°24'10 9.8
2015-Aug-21 19:31N 38°14' W 000°26'6 1.5
2015-Aug-21 15:15N 38°20' W 000°29'0 0.0
2015-Aug-21 11:33N 38°20' W 000°29'9 1.3
2015-Aug-21 04:17N 38°12' W 000°24'710.1
2015-Aug-21 03:33N 38°04' W 000°23'1110.6
2015-Aug-21 02:33N 37°54' W 000°25'1010.3
2015-Aug-21 01:33N 37°44' W 000°28'1010.3
2015-Aug-21 00:33N 37°34' W 000°31'1010.1
2015-Aug-20 23:33N 37°27' W 000°40'  

Dump ship's entire track history